Terminal Aerodrome Forecast
Issued by NWS Detroit/Pontiac, MI

Home | Current Version | Previous Version | Text Only | Print | Product List | Glossary On
Versions: 1 2 3 4 5 6 7 8 9 10 11 12 13 14 15 16 17
054
FTUS43 KDTX 271120
TAFFNT
TAF
KFNT 271120Z 2712/2812 13005KT P6SM SCT060 BKN090 OVC150
     FM271500 17007KT P6SM SCT050 BKN080
     FM271700 18007KT 6SM SHRA OVC040
     FM272300 14005KT P6SM SCT050 BKN100
     FM280900 VRB03KT 5SM BR SCT015=

USA.gov is the U.S. government's official web portal to all federal, state and local government web resources and services.